createdAt,value
2018-11-10T00:02:15.975Z,98296.42
2018-11-10T00:04:44.417Z,98304.31
2018-11-10T00:07:12.949Z,98293.05
2018-11-10T00:09:41.287Z,98298.01
2018-11-10T00:12:09.738Z,98295.56
2018-11-10T00:14:38.201Z,98291.05
2018-11-10T00:17:07.135Z,98286.22
2018-11-10T00:19:35.480Z,98290.75
2018-11-10T00:22:04.067Z,98290.21
2018-11-10T00:24:32.636Z,98294.25
2018-11-10T00:27:01.267Z,98285.23
2018-11-10T00:29:29.548Z,98290.41
2018-11-10T00:31:57.932Z,98281.06
2018-11-10T00:34:26.363Z,98275.81
2018-11-10T00:36:54.818Z,98276.02
2018-11-10T00:39:23.138Z,98275.80
2018-11-10T00:41:51.451Z,98264.27
2018-11-10T00:44:19.759Z,98269.50
2018-11-10T00:46:48.149Z,98275.12
2018-11-10T00:49:16.716Z,98280.00
2018-11-10T00:51:45.583Z,98273.30
2018-11-10T00:54:14.013Z,98271.95
2018-11-10T00:56:42.385Z,98276.80
2018-11-10T00:59:10.687Z,98272.92
2018-11-10T01:01:39.026Z,98270.70
2018-11-10T01:04:07.446Z,98264.81
2018-11-10T01:06:37.403Z,98271.03
2018-11-10T01:09:07.697Z,98274.89
2018-11-10T01:11:36.035Z,98268.45
2018-11-10T01:14:04.406Z,98265.79
2018-11-10T01:16:32.763Z,98266.39
2018-11-10T01:19:01.043Z,98267.88
2018-11-10T01:21:29.368Z,98265.34
2018-11-10T01:23:57.658Z,98265.44
2018-11-10T01:26:25.986Z,98259.12
2018-11-10T01:28:54.341Z,98253.23
2018-11-10T01:31:22.780Z,98250.80
2018-11-10T01:33:51.180Z,98244.36
2018-11-10T01:36:19.475Z,98237.71
2018-11-10T01:38:47.838Z,98237.85
2018-11-10T01:41:16.297Z,98227.01
2018-11-10T01:43:44.696Z,98219.77
2018-11-10T01:46:12.983Z,98219.01
2018-11-10T01:48:41.321Z,98213.00
2018-11-10T01:51:09.610Z,98212.08
2018-11-10T01:53:37.918Z,98208.89
2018-11-10T01:56:06.391Z,98213.44
2018-11-10T01:58:34.752Z,98209.51
2018-11-10T02:01:03.072Z,98212.72
2018-11-10T02:03:31.394Z,98219.94
2018-11-10T02:05:59.734Z,98208.09
2018-11-10T02:08:28.104Z,98200.47
2018-11-10T02:10:56.392Z,98204.31
2018-11-10T02:13:24.709Z,98198.66
2018-11-10T02:15:53.013Z,98183.96
2018-11-10T02:18:21.347Z,98189.77
2018-11-10T02:20:49.674Z,98183.23
2018-11-10T02:23:18.589Z,98178.02
2018-11-10T02:25:47.001Z,98181.03
2018-11-10T02:28:15.679Z,98174.38
2018-11-10T02:30:44.354Z,98173.55
2018-11-10T02:33:12.698Z,98169.91
2018-11-10T02:35:41.006Z,98167.04
2018-11-10T02:38:09.331Z,98166.47
2018-11-10T02:40:37.627Z,98165.78
2018-11-10T02:43:06.193Z,98159.97
2018-11-10T02:45:34.779Z,98162.40
2018-11-10T02:48:03.099Z,98155.96
2018-11-10T02:50:31.433Z,98153.59
2018-11-10T02:52:59.735Z,98158.42
2018-11-10T02:55:28.183Z,98162.16
2018-11-10T02:57:56.770Z,98161.67
2018-11-10T03:00:25.096Z,98153.15
2018-11-10T03:02:53.418Z,98150.84
2018-11-10T03:05:21.699Z,98148.05
2018-11-10T03:07:50.022Z,98145.48
2018-11-10T03:10:18.308Z,98142.96
2018-11-10T03:12:46.682Z,98145.21
2018-11-10T03:15:14.982Z,98142.27
2018-11-10T03:17:43.315Z,98143.16
2018-11-10T03:20:13.648Z,98135.33
2018-11-10T03:22:42.020Z,98127.99
2018-11-10T03:25:10.692Z,98122.83
2018-11-10T03:27:39.157Z,98124.36
2018-11-10T03:30:07.793Z,98112.11
2018-11-10T03:32:36.535Z,98114.53
2018-11-10T03:35:05.411Z,98110.34
2018-11-10T03:37:33.708Z,98116.16
2018-11-10T03:40:02.325Z,98109.70
2018-11-10T03:42:30.731Z,98111.47
2018-11-10T03:44:59.073Z,98107.98
2018-11-10T03:47:27.463Z,98103.49
2018-11-10T03:49:55.839Z,98104.13
2018-11-10T03:52:24.189Z,98106.01
2018-11-10T03:54:52.498Z,98100.49
2018-11-10T03:57:20.908Z,98109.70
2018-11-10T03:59:49.193Z,98100.66
2018-11-10T04:02:17.663Z,98102.97
2018-11-10T04:04:46.091Z,98086.37
2018-11-10T04:07:14.626Z,98090.11
2018-11-10T04:09:43.382Z,98086.27
2018-11-10T04:12:11.785Z,98085.38
2018-11-10T04:14:40.310Z,98077.98
2018-11-10T04:17:08.824Z,98076.61
2018-11-10T04:19:37.146Z,98074.98
2018-11-10T04:22:05.690Z,98072.03
2018-11-10T04:24:34.122Z,98077.01
2018-11-10T04:27:02.423Z,98080.21
2018-11-10T04:29:30.755Z,98079.67
2018-11-10T04:31:59.162Z,98094.44
2018-11-10T04:34:27.451Z,98074.14
2018-11-10T04:36:55.769Z,98081.63
2018-11-10T04:39:24.306Z,98072.08
2018-11-10T04:41:52.609Z,98068.72
2018-11-10T04:44:21.103Z,98067.30
2018-11-10T04:46:49.598Z,98062.23
2018-11-10T04:49:18.095Z,98054.16
2018-11-10T04:51:46.484Z,98055.09
2018-11-10T04:54:14.759Z,98048.78
2018-11-10T04:56:43.112Z,98038.78
2018-11-10T04:59:11.412Z,98036.97
2018-11-10T05:01:39.699Z,98028.94
2018-11-10T05:04:08.082Z,98020.67
2018-11-10T05:06:36.387Z,98019.98
2018-11-10T05:09:06.133Z,98012.15
2018-11-10T05:11:34.440Z,98009.41
2018-11-10T05:14:02.834Z,98012.50
2018-11-10T05:16:31.217Z,98016.58
2018-11-10T05:18:59.595Z,98012.70
2018-11-10T05:21:27.956Z,98015.70
2018-11-10T05:23:56.260Z,98008.31
2018-11-10T05:26:24.634Z,98009.09
2018-11-10T05:28:52.943Z,97995.52
2018-11-10T05:31:21.292Z,98006.59
2018-11-10T05:33:49.651Z,98006.95
2018-11-10T05:36:18.036Z,98010.17
2018-11-10T05:38:46.398Z,97997.16
2018-11-10T05:41:14.738Z,97999.47
2018-11-10T05:43:43.090Z,97994.67
2018-11-10T05:46:11.373Z,97990.13
2018-11-10T05:48:39.687Z,97981.79
2018-11-10T05:51:08.054Z,97990.32
2018-11-10T05:53:36.417Z,97991.69
2018-11-10T05:56:05.441Z,97994.63
2018-11-10T05:58:33.775Z,97985.83
2018-11-10T06:01:02.194Z,97989.59
2018-11-10T06:03:30.530Z,97991.23
2018-11-10T06:05:58.894Z,97983.03
2018-11-10T06:08:27.214Z,97987.23
2018-11-10T06:10:55.517Z,97980.05
2018-11-10T06:13:24.129Z,97986.97
2018-11-10T06:15:52.632Z,97978.30
2018-11-10T06:18:21.011Z,97980.47
2018-11-10T06:20:49.507Z,97980.18
2018-11-10T06:23:17.867Z,97983.61
2018-11-10T06:25:46.240Z,97989.48
2018-11-10T06:28:15.490Z,97994.25
2018-11-10T06:30:43.818Z,97997.19
2018-11-10T06:33:12.126Z,98004.31
2018-11-10T06:35:41.849Z,98009.13
2018-11-10T06:38:11.030Z,98009.38
2018-11-10T06:40:40.493Z,98009.91
2018-11-10T06:43:08.924Z,98010.33
2018-11-10T06:45:37.273Z,98013.80
2018-11-10T06:48:05.944Z,98013.03
2018-11-10T06:50:34.339Z,98011.18
2018-11-10T06:53:03.923Z,98010.62
2018-11-10T06:55:33.540Z,98017.95
2018-11-10T06:58:02.738Z,98026.13
2018-11-10T07:00:31.210Z,98023.26
2018-11-10T07:02:59.526Z,98028.56
2018-11-10T07:05:28.458Z,98041.13
2018-11-10T07:07:56.818Z,98046.84
2018-11-10T07:13:17.678Z,98071.66
2018-11-10T07:15:46.330Z,98058.05
2018-11-10T07:18:15.153Z,98070.27
2018-11-10T07:20:45.092Z,98059.25
2018-11-10T07:23:13.442Z,98070.84
2018-11-10T07:25:41.905Z,98079.09
2018-11-10T07:28:10.266Z,98056.25
2018-11-10T07:30:38.894Z,98050.22
2018-11-10T07:33:07.206Z,98049.26
2018-11-10T07:35:35.534Z,98043.42
2018-11-10T07:38:03.869Z,98034.40
2018-11-10T07:40:32.181Z,98014.47
2018-11-10T07:43:00.529Z,98015.48
2018-11-10T07:45:28.836Z,98029.61
2018-11-10T07:47:57.135Z,98043.00
2018-11-10T07:50:25.623Z,98051.97
2018-11-10T07:52:53.931Z,98055.32
2018-11-10T07:55:22.487Z,98059.91
2018-11-10T07:57:50.780Z,98062.38
2018-11-10T08:00:19.588Z,98075.58
2018-11-10T08:02:47.888Z,98082.11
2018-11-10T08:05:16.955Z,98083.00
2018-11-10T08:07:45.908Z,98070.03
2018-11-10T08:10:16.304Z,98060.77
2018-11-10T08:12:44.750Z,98077.77
2018-11-10T08:15:14.802Z,98081.88
2018-11-10T08:17:43.315Z,98096.07
2018-11-10T08:20:12.508Z,98091.92
2018-11-10T08:22:41.158Z,98077.93
2018-11-10T08:25:12.155Z,98083.22
2018-11-10T08:27:40.640Z,98093.38
2018-11-10T08:30:11.116Z,98091.89
2018-11-10T08:32:40.090Z,98066.45
2018-11-10T08:35:10.202Z,98057.55
2018-11-10T08:37:38.810Z,98051.94
2018-11-10T08:40:09.154Z,98054.45
2018-11-10T08:42:37.615Z,98051.45
2018-11-10T08:45:08.088Z,98046.30
2018-11-10T08:47:36.446Z,98051.02
2018-11-10T08:50:05.638Z,98043.38
2018-11-10T08:52:33.960Z,98041.80
2018-11-10T08:55:02.436Z,98050.16
2018-11-10T08:57:30.734Z,98050.88
2018-11-10T08:59:59.044Z,98044.97
2018-11-10T09:02:27.374Z,98044.63
2018-11-10T09:04:55.716Z,98052.65
2018-11-10T09:07:24.470Z,98041.52
2018-11-10T09:09:53.067Z,98040.38
2018-11-10T09:12:21.487Z,98038.32
2018-11-10T09:14:49.854Z,98036.15
2018-11-10T09:17:18.142Z,98035.52
2018-11-10T09:19:46.473Z,98029.04
2018-11-10T09:22:15.043Z,98041.14
2018-11-10T09:24:43.319Z,98040.41
2018-11-10T09:27:11.668Z,98041.93
2018-11-10T09:29:40.083Z,98030.38
2018-11-10T09:32:08.356Z,98035.92
2018-11-10T09:34:36.664Z,98040.13
2018-11-10T09:37:23.540Z,98037.98
2018-11-10T09:39:51.900Z,98028.73
2018-11-10T09:42:20.429Z,98033.66
2018-11-10T09:44:48.696Z,98033.66
2018-11-10T09:47:17.016Z,98040.98
2018-11-10T09:49:49.142Z,98043.34
2018-11-10T09:52:18.406Z,98032.30
2018-11-10T09:54:47.811Z,98033.22
2018-11-10T09:57:17.435Z,98041.09
2018-11-10T09:59:47.600Z,98042.73
2018-11-10T10:02:17.858Z,98039.49
2018-11-10T10:04:46.049Z,98036.91
2018-11-10T10:07:14.391Z,98034.41
2018-11-10T10:09:42.714Z,98024.27
2018-11-10T10:12:11.139Z,98022.77
2018-11-10T10:14:39.415Z,98016.59
2018-11-10T10:17:07.727Z,98002.24
2018-11-10T10:19:36.031Z,98003.00
2018-11-10T10:22:04.382Z,97998.84
2018-11-10T10:24:32.672Z,98006.49
2018-11-10T10:27:01.035Z,98002.19
2018-11-10T10:29:29.330Z,97994.08
2018-11-10T10:31:57.960Z,97988.43
2018-11-10T10:34:26.403Z,97983.47
2018-11-10T10:36:55.145Z,97988.02
2018-11-10T10:39:23.551Z,97991.86
2018-11-10T10:41:51.987Z,97993.36
2018-11-10T10:44:20.414Z,97998.05
2018-11-10T10:46:48.825Z,97990.88
2018-11-10T10:49:17.537Z,97985.87
2018-11-10T10:51:45.924Z,97983.53
2018-11-10T10:54:14.851Z,97972.36
2018-11-10T10:56:43.164Z,97982.25
2018-11-10T10:59:11.584Z,97986.42
2018-11-10T11:01:45.209Z,97979.42
2018-11-10T11:04:18.892Z,97983.59
2018-11-10T11:06:47.222Z,97987.77
2018-11-10T11:09:15.602Z,97980.54
2018-11-10T11:11:44.043Z,97976.41
2018-11-10T11:14:12.382Z,97961.39
2018-11-10T11:16:40.716Z,97962.95
2018-11-10T11:19:09.133Z,97965.74
2018-11-10T11:21:37.494Z,97958.23
2018-11-10T11:24:06.158Z,97950.72
2018-11-10T11:26:34.479Z,97958.06
2018-11-10T11:29:02.813Z,97954.59
2018-11-10T11:31:31.208Z,97956.61
2018-11-10T11:33:59.546Z,97956.89
2018-11-10T11:36:27.948Z,97962.11
2018-11-10T11:38:56.254Z,97959.27
2018-11-10T11:41:24.668Z,97969.62
2018-11-10T11:43:52.919Z,97970.46
2018-11-10T11:46:21.214Z,97967.45
2018-11-10T11:48:49.524Z,97963.28
2018-11-10T11:51:17.778Z,97968.29
2018-11-10T11:53:46.118Z,97973.47
2018-11-10T11:56:14.385Z,97965.83
2018-11-10T11:58:42.711Z,97970.80
2018-11-10T12:01:11.469Z,97968.45
2018-11-10T12:03:39.844Z,97962.91
2018-11-10T12:06:08.121Z,97960.73
2018-11-10T12:08:36.428Z,97957.89
2018-11-10T12:11:05.172Z,97952.72
2018-11-10T12:13:33.521Z,97957.06
2018-11-10T12:16:01.945Z,97950.05
2018-11-10T12:18:30.275Z,97952.55
2018-11-10T12:20:58.687Z,97948.55
2018-11-10T12:23:27.062Z,97942.87
2018-11-10T12:25:55.360Z,97944.38
2018-11-10T12:28:23.950Z,97955.55
2018-11-10T12:30:52.236Z,97947.21
2018-11-10T12:33:21.451Z,97947.92
2018-11-10T12:35:50.445Z,97942.75
2018-11-10T12:38:18.987Z,97946.08
2018-11-10T12:40:47.465Z,97947.45
2018-11-10T12:43:15.888Z,97946.95
2018-11-10T12:45:44.419Z,97946.78
2018-11-10T12:48:12.731Z,97933.77
2018-11-10T12:50:41.022Z,97944.81
2018-11-10T12:53:09.326Z,97936.44
2018-11-10T12:55:38.074Z,97945.61
2018-11-10T12:58:06.504Z,97949.98
2018-11-10T13:00:34.875Z,97946.81
2018-11-10T13:03:03.400Z,97944.45
2018-11-10T13:05:31.835Z,97951.45
2018-11-10T13:08:00.386Z,97951.96
2018-11-10T13:10:28.721Z,97952.46
2018-11-10T13:12:57.259Z,97948.13
2018-11-10T13:15:25.674Z,97946.45
2018-11-10T13:17:54.044Z,97950.45
2018-11-10T13:20:22.618Z,97946.45
2018-11-10T13:22:50.921Z,97945.62
2018-11-10T13:25:19.405Z,97948.95
2018-11-10T13:27:47.827Z,97944.92
2018-11-10T13:30:16.719Z,97934.90
2018-11-10T13:32:45.622Z,97933.42
2018-11-10T13:35:14.012Z,97933.42
2018-11-10T13:37:42.311Z,97935.27
2018-11-10T13:40:11.713Z,97936.27
2018-11-10T13:42:40.180Z,97938.10
2018-11-10T13:45:10.292Z,97933.77
2018-11-10T13:47:38.670Z,97938.41
2018-11-10T13:50:09.077Z,97941.94
2018-11-10T13:52:38.267Z,97944.41
2018-11-10T13:55:06.325Z,97942.41
2018-11-10T13:57:34.658Z,97937.77
2018-11-10T14:00:03.947Z,97933.39
2018-11-10T14:02:32.302Z,97941.44
2018-11-10T14:05:00.863Z,97932.89
2018-11-10T14:07:29.181Z,97932.56
2018-11-10T14:09:57.539Z,97928.39
2018-11-10T14:12:26.231Z,97928.09
2018-11-10T14:14:54.435Z,97924.22
2018-11-10T14:17:22.822Z,97925.05
2018-11-10T14:19:51.097Z,97917.38
2018-11-10T14:22:19.406Z,97919.04
2018-11-10T14:24:47.731Z,97917.20
2018-11-10T14:27:16.023Z,97917.73
2018-11-10T14:29:44.390Z,97918.38
2018-11-10T14:32:12.683Z,97924.41
2018-11-10T14:34:41.008Z,97922.74
2018-11-10T14:37:09.351Z,97924.91
2018-11-10T14:39:37.679Z,97924.72
2018-11-10T14:42:06.007Z,97920.70
2018-11-10T14:44:34.350Z,97923.88
2018-11-10T14:47:02.787Z,97919.87
2018-11-10T14:49:31.148Z,97920.04
2018-11-10T14:51:59.580Z,97926.22
2018-11-10T14:54:27.930Z,97930.39
2018-11-10T14:56:56.587Z,97929.39
2018-11-10T14:59:24.952Z,97927.22
2018-11-10T15:01:53.234Z,97930.06
2018-11-10T15:04:21.598Z,97934.06
2018-11-10T15:06:51.661Z,97939.41
2018-11-10T15:09:19.992Z,97941.08
2018-11-10T15:11:48.436Z,97941.75
2018-11-10T15:14:16.634Z,97942.91
2018-11-10T15:16:44.952Z,97953.59
2018-11-10T15:19:13.245Z,97942.70
2018-11-10T15:21:41.571Z,97935.36
2018-11-10T15:24:09.886Z,97954.43
2018-11-10T15:26:38.785Z,97955.73
2018-11-10T15:29:07.350Z,97948.88
2018-11-10T15:31:36.768Z,97951.05
2018-11-10T15:34:05.570Z,97951.39
2018-11-10T15:36:34.625Z,97947.20
2018-11-10T15:39:04.702Z,97945.53
2018-11-10T15:41:33.287Z,97953.05
2018-11-10T15:44:02.140Z,97955.01
2018-11-10T15:46:30.616Z,97958.18
2018-11-10T15:48:58.979Z,97954.38
2018-11-10T15:51:27.262Z,97956.38
2018-11-10T15:53:55.727Z,97949.38
2018-11-10T15:56:24.052Z,97950.87
2018-11-10T15:58:52.350Z,97941.66
2018-11-10T16:01:20.850Z,97944.83
2018-11-10T16:03:49.482Z,97945.33
2018-11-10T16:06:17.736Z,97951.55
2018-11-10T16:08:46.061Z,97953.04
2018-11-10T16:11:14.459Z,97941.48
2018-11-10T16:13:42.847Z,97949.38
2018-11-10T16:16:11.345Z,97955.22
2018-11-10T16:18:39.718Z,97952.39
2018-11-10T16:21:08.816Z,97957.06
2018-11-10T16:23:37.334Z,97959.72
2018-11-10T16:26:05.826Z,97949.33
2018-11-10T16:28:34.257Z,97951.67
2018-11-10T16:31:02.743Z,97954.71
2018-11-10T16:33:31.188Z,97953.67
2018-11-10T16:36:01.293Z,97958.05
2018-11-10T16:38:29.924Z,97963.72
2018-11-10T16:40:58.263Z,97952.83
2018-11-10T16:43:26.680Z,97954.17
2018-11-10T16:45:55.114Z,97944.16
2018-11-10T16:48:23.487Z,97947.16
2018-11-10T16:50:52.287Z,97950.70
2018-11-10T16:53:21.372Z,97961.89
2018-11-10T16:55:49.811Z,97960.05
2018-11-10T16:58:18.219Z,97949.38
2018-11-10T17:00:46.777Z,97958.02
2018-11-10T17:03:15.265Z,97962.73
2018-11-10T17:05:43.926Z,97961.89
2018-11-10T17:08:12.530Z,97954.72
2018-11-10T17:10:40.931Z,97953.04
2018-11-10T17:13:09.452Z,97949.71
2018-11-10T17:15:37.924Z,97954.05
2018-11-10T17:18:06.182Z,97955.05
2018-11-10T17:20:34.494Z,97954.34
2018-11-10T17:23:02.919Z,97943.83
2018-11-10T17:25:31.276Z,97947.66
2018-11-10T17:28:00.250Z,97942.48
2018-11-10T17:30:29.725Z,97936.48
2018-11-10T17:32:58.132Z,97943.49
2018-11-10T17:35:27.118Z,97933.81
2018-11-10T17:37:56.255Z,97937.98
2018-11-10T17:40:24.877Z,97937.81
2018-11-10T17:42:54.354Z,97935.98
2018-11-10T17:45:23.005Z,97926.64
2018-11-10T17:47:51.411Z,97920.30
2018-11-10T17:50:19.825Z,97923.80
2018-11-10T17:52:48.255Z,97923.13
2018-11-10T17:55:17.428Z,97926.64
2018-11-10T17:57:46.264Z,97926.97
2018-11-10T18:00:14.778Z,97932.18
2018-11-10T18:02:43.094Z,97933.98
2018-11-10T18:05:13.250Z,97935.98
2018-11-10T18:07:41.828Z,97934.31
2018-11-10T18:10:12.151Z,97930.30
2018-11-10T18:12:40.756Z,97932.31
2018-11-10T18:15:10.016Z,97920.30
2018-11-10T18:17:38.741Z,97928.14
2018-11-10T18:20:08.114Z,97924.47
2018-11-10T18:22:36.729Z,97925.97
2018-11-10T18:25:05.638Z,97922.47
2018-11-10T18:27:40.456Z,97919.63
2018-11-10T18:30:11.416Z,97926.64
2018-11-10T18:32:39.782Z,97940.66
2018-11-10T18:38:16.330Z,97933.64
2018-11-10T18:40:44.650Z,97928.63
2018-11-10T18:43:12.979Z,97929.97
2018-11-10T18:45:41.486Z,97920.95
2018-11-10T18:48:09.818Z,97932.98
2018-11-10T18:50:38.228Z,97932.64
2018-11-10T18:53:06.737Z,97931.64
2018-11-10T18:55:36.528Z,97932.14
2018-11-10T18:58:04.913Z,97944.65
2018-11-10T19:00:33.271Z,97946.83
2018-11-10T19:03:01.595Z,97953.66
2018-11-10T19:05:29.908Z,97954.31
2018-11-10T19:07:58.351Z,97956.28
2018-11-10T19:10:26.704Z,97952.94
2018-11-10T19:12:55.053Z,97948.64
2018-11-10T19:15:23.314Z,97948.39
2018-11-10T19:17:51.679Z,97952.40
2018-11-10T19:20:20.084Z,97946.40
2018-11-10T19:22:48.494Z,97942.05
2018-11-10T19:25:16.984Z,97941.88
2018-11-10T19:27:45.462Z,97949.91
2018-11-10T19:30:16.446Z,97955.65
2018-11-10T19:32:45.426Z,97948.81
2018-11-10T19:35:14.070Z,97941.22
2018-11-10T19:37:42.582Z,97942.09
2018-11-10T19:40:11.637Z,97942.05
2018-11-10T19:42:41.235Z,97948.09
2018-11-10T19:45:10.454Z,97949.77
2018-11-10T19:47:40.187Z,97949.27
2018-11-10T19:50:09.695Z,97943.73
2018-11-10T19:52:39.104Z,97950.23
2018-11-10T19:55:10.657Z,97942.05
2018-11-10T19:57:39.103Z,97940.92
2018-11-10T20:00:14.184Z,97949.23
2018-11-10T20:02:43.259Z,97943.23
2018-11-10T20:05:11.679Z,97933.53
2018-11-10T20:07:40.436Z,97943.05
2018-11-10T20:10:09.698Z,97936.55
2018-11-10T20:12:38.783Z,97932.08
2018-11-10T20:15:09.761Z,97934.25
2018-11-10T20:17:38.887Z,97945.30
2018-11-10T20:20:09.522Z,97941.30
2018-11-10T20:22:38.373Z,97935.97
2018-11-10T20:25:10.768Z,97944.14
2018-11-10T20:27:40.551Z,97943.14
2018-11-10T20:30:11.976Z,97946.94
2018-11-10T20:32:42.529Z,97950.27
2018-11-10T20:35:12.797Z,97944.56
2018-11-10T20:37:43.051Z,97945.23
2018-11-10T20:40:13.656Z,97947.09
2018-11-10T20:42:42.601Z,97944.73
2018-11-10T20:45:17.381Z,97939.38
2018-11-10T20:47:51.030Z,97939.22
2018-11-10T20:50:22.085Z,97943.23
2018-11-10T20:52:50.469Z,97937.70
2018-11-10T20:55:18.959Z,97942.55
2018-11-10T20:57:47.741Z,97932.70
2018-11-10T21:00:19.835Z,97943.55
2018-11-10T21:02:48.087Z,97950.05
2018-11-10T21:05:18.029Z,97952.55
2018-11-10T21:07:50.044Z,97950.23
2018-11-10T21:10:19.871Z,97951.55
2018-11-10T21:12:49.716Z,97949.49
2018-11-10T21:15:19.372Z,97939.48
2018-11-10T21:17:48.199Z,97937.66
2018-11-10T21:20:16.676Z,97931.31
2018-11-10T21:22:46.703Z,97939.81
2018-11-10T21:25:16.578Z,97946.14
2018-11-10T21:27:48.304Z,97939.30
2018-11-10T21:30:18.143Z,97948.30
2018-11-10T21:32:47.124Z,97943.47
2018-11-10T21:35:15.512Z,97936.96
2018-11-10T21:37:45.666Z,97939.45
2018-11-10T21:40:15.469Z,97938.30
2018-11-10T21:42:44.337Z,97940.47
2018-11-10T21:45:13.795Z,97936.13
2018-11-10T21:47:42.226Z,97932.58
2018-11-10T21:50:13.753Z,97941.46
2018-11-10T21:52:44.920Z,97939.97
2018-11-10T21:55:14.585Z,97941.15
2018-11-10T21:57:43.701Z,97938.38
2018-11-10T22:00:14.733Z,97937.99
2018-11-10T22:02:43.677Z,97947.55
2018-11-10T22:05:12.427Z,97943.38
2018-11-10T22:07:40.716Z,97947.39
2018-11-10T22:10:11.855Z,97952.40
2018-11-10T22:12:40.555Z,97951.98
2018-11-10T22:15:11.414Z,97954.91
2018-11-10T22:17:41.458Z,97952.56
2018-11-10T22:20:11.303Z,97944.93
2018-11-10T22:22:41.365Z,97947.97
2018-11-10T22:25:10.672Z,97953.27
2018-11-10T22:27:41.016Z,97956.33
2018-11-10T22:30:11.232Z,97951.16
2018-11-10T22:32:39.609Z,97946.99
2018-11-10T22:35:08.656Z,97939.64
2018-11-10T22:37:38.475Z,97939.81
2018-11-10T22:40:08.580Z,97936.47
2018-11-10T22:42:37.734Z,97947.98
2018-11-10T22:45:06.827Z,97949.65
2018-11-10T22:47:35.159Z,97940.64
2018-11-10T22:50:03.459Z,97943.30
2018-11-10T22:52:32.458Z,97950.64
2018-11-10T22:55:00.732Z,97943.43
2018-11-10T22:57:29.188Z,97944.56
2018-11-10T22:59:57.628Z,97943.89
2018-11-10T23:02:26.367Z,97940.39
2018-11-10T23:04:55.994Z,97939.72
2018-11-10T23:07:24.302Z,97927.37
2018-11-10T23:09:52.689Z,97932.25
2018-11-10T23:12:21.072Z,97923.12
2018-11-10T23:14:49.411Z,97929.79
2018-11-10T23:17:17.760Z,97921.95
2018-11-10T23:19:46.374Z,97932.64
2018-11-10T23:22:14.882Z,97931.96
2018-11-10T23:24:43.355Z,97935.13
2018-11-10T23:27:11.671Z,97927.58
2018-11-10T23:29:40.007Z,97933.55
2018-11-10T23:32:08.398Z,97932.55
2018-11-10T23:34:36.682Z,97935.92
2018-11-10T23:37:05.502Z,97936.88
2018-11-10T23:39:33.844Z,97943.30
2018-11-10T23:42:02.365Z,97936.09
2018-11-10T23:44:31.111Z,97932.62
2018-11-10T23:46:59.898Z,97930.80
2018-11-10T23:49:28.297Z,97940.64
2018-11-10T23:51:56.886Z,97941.81
2018-11-10T23:54:25.203Z,97930.96
2018-11-10T23:56:53.687Z,97932.81
2018-11-10T23:59:21.996Z,97933.64
